sensor_id;sensor_type;location;lat;lon;timestamp;P1;durP1;ratioP1;P2;durP2;ratioP2
27802;SDS011;15182;48.174;11.562;2023-01-28T00:00:29;23.63;;;13.83;;
27802;SDS011;15182;48.174;11.562;2023-01-28T00:03:01;23.53;;;14.93;;
27802;SDS011;15182;48.174;11.562;2023-01-28T00:05:33;26.57;;;15.10;;
27802;SDS011;15182;48.174;11.562;2023-01-28T00:08:04;23.43;;;14.10;;
27802;SDS011;15182;48.174;11.562;2023-01-28T00:10:36;19.13;;;13.87;;
27802;SDS011;15182;48.174;11.562;2023-01-28T00:13:08;25.23;;;15.63;;
27802;SDS011;15182;48.174;11.562;2023-01-28T00:15:41;28.73;;;15.47;;
27802;SDS011;15182;48.174;11.562;2023-01-28T00:18:12;25.03;;;16.03;;
27802;SDS011;15182;48.174;11.562;2023-01-28T00:20:54;22.37;;;14.97;;
27802;SDS011;15182;48.174;11.562;2023-01-28T00:23:25;24.90;;;14.60;;
27802;SDS011;15182;48.174;11.562;2023-01-28T00:25:57;26.93;;;14.40;;
27802;SDS011;15182;48.174;11.562;2023-01-28T00:28:29;24.43;;;14.57;;
27802;SDS011;15182;48.174;11.562;2023-01-28T00:31:06;26.60;;;15.47;;
27802;SDS011;15182;48.174;11.562;2023-01-28T00:33:39;24.70;;;14.00;;
27802;SDS011;15182;48.174;11.562;2023-01-28T00:36:12;25.60;;;14.83;;
27802;SDS011;15182;48.174;11.562;2023-01-28T00:38:48;20.97;;;14.47;;
27802;SDS011;15182;48.174;11.562;2023-01-28T00:41:20;25.53;;;14.70;;
27802;SDS011;15182;48.174;11.562;2023-01-28T00:43:54;23.77;;;15.00;;
27802;SDS011;15182;48.174;11.562;2023-01-28T00:46:25;22.90;;;14.37;;
27802;SDS011;15182;48.174;11.562;2023-01-28T00:48:56;24.67;;;15.30;;
27802;SDS011;15182;48.174;11.562;2023-01-28T00:51:29;23.07;;;15.03;;
27802;SDS011;15182;48.174;11.562;2023-01-28T00:54:02;23.33;;;14.70;;
27802;SDS011;15182;48.174;11.562;2023-01-28T00:56:33;24.50;;;15.10;;
27802;SDS011;15182;48.174;11.562;2023-01-28T00:59:04;25.43;;;15.50;;
27802;SDS011;15182;48.174;11.562;2023-01-28T01:01:36;21.00;;;14.37;;
27802;SDS011;15182;48.174;11.562;2023-01-28T01:04:07;25.47;;;15.60;;
27802;SDS011;15182;48.174;11.562;2023-01-28T01:06:40;24.50;;;14.87;;
27802;SDS011;15182;48.174;11.562;2023-01-28T01:09:11;28.87;;;16.53;;
27802;SDS011;15182;48.174;11.562;2023-01-28T01:11:44;25.70;;;14.70;;
27802;SDS011;15182;48.174;11.562;2023-01-28T01:14:16;26.40;;;16.07;;
27802;SDS011;15182;48.174;11.562;2023-01-28T01:16:49;25.57;;;15.13;;
27802;SDS011;15182;48.174;11.562;2023-01-28T01:19:20;27.73;;;15.83;;
27802;SDS011;15182;48.174;11.562;2023-01-28T01:21:54;27.03;;;16.33;;
27802;SDS011;15182;48.174;11.562;2023-01-28T01:24:26;24.30;;;15.27;;
27802;SDS011;15182;48.174;11.562;2023-01-28T01:26:58;27.67;;;15.43;;
27802;SDS011;15182;48.174;11.562;2023-01-28T01:29:30;28.20;;;15.53;;
27802;SDS011;15182;48.174;11.562;2023-01-28T01:32:02;28.13;;;16.47;;
27802;SDS011;15182;48.174;11.562;2023-01-28T01:34:33;21.57;;;14.37;;
27802;SDS011;15182;48.174;11.562;2023-01-28T01:37:06;25.63;;;15.10;;
27802;SDS011;15182;48.174;11.562;2023-01-28T01:39:38;23.50;;;14.93;;
27802;SDS011;15182;48.174;11.562;2023-01-28T01:42:11;24.47;;;15.30;;
27802;SDS011;15182;48.174;11.562;2023-01-28T01:44:59;25.67;;;15.27;;
27802;SDS011;15182;48.174;11.562;2023-01-28T01:47:35;22.73;;;14.90;;
27802;SDS011;15182;48.174;11.562;2023-01-28T01:50:15;27.93;;;16.13;;
27802;SDS011;15182;48.174;11.562;2023-01-28T01:52:56;25.30;;;14.73;;
27802;SDS011;15182;48.174;11.562;2023-01-28T01:55:35;25.90;;;15.40;;
27802;SDS011;15182;48.174;11.562;2023-01-28T01:58:12;21.83;;;14.17;;
27802;SDS011;15182;48.174;11.562;2023-01-28T02:00:50;26.77;;;16.67;;
27802;SDS011;15182;48.174;11.562;2023-01-28T02:03:22;23.63;;;14.33;;
27802;SDS011;15182;48.174;11.562;2023-01-28T02:06:03;27.93;;;16.27;;
27802;SDS011;15182;48.174;11.562;2023-01-28T02:08:36;25.07;;;14.10;;
27802;SDS011;15182;48.174;11.562;2023-01-28T02:11:07;23.40;;;14.83;;
27802;SDS011;15182;48.174;11.562;2023-01-28T02:13:41;25.80;;;15.17;;
27802;SDS011;15182;48.174;11.562;2023-01-28T02:16:15;23.97;;;14.50;;
27802;SDS011;15182;48.174;11.562;2023-01-28T02:18:47;23.47;;;14.67;;
27802;SDS011;15182;48.174;11.562;2023-01-28T02:24:42;24.83;;;14.37;;
27802;SDS011;15182;48.174;11.562;2023-01-28T02:27:57;22.23;;;14.57;;
27802;SDS011;15182;48.174;11.562;2023-01-28T02:30:41;22.47;;;13.60;;
27802;SDS011;15182;48.174;11.562;2023-01-28T02:33:18;22.93;;;13.50;;
27802;SDS011;15182;48.174;11.562;2023-01-28T02:35:57;26.93;;;15.47;;
27802;SDS011;15182;48.174;11.562;2023-01-28T02:38:39;25.90;;;14.80;;
27802;SDS011;15182;48.174;11.562;2023-01-28T02:41:17;23.10;;;14.10;;
27802;SDS011;15182;48.174;11.562;2023-01-28T02:43:56;23.00;;;14.27;;
27802;SDS011;15182;48.174;11.562;2023-01-28T02:46:33;25.00;;;15.20;;
27802;SDS011;15182;48.174;11.562;2023-01-28T02:49:24;21.67;;;14.33;;
27802;SDS011;15182;48.174;11.562;2023-01-28T02:52:12;25.23;;;15.23;;
27802;SDS011;15182;48.174;11.562;2023-01-28T02:55:14;23.97;;;15.13;;
27802;SDS011;15182;48.174;11.562;2023-01-28T02:57:54;27.73;;;14.90;;
27802;SDS011;15182;48.174;11.562;2023-01-28T03:00:38;24.23;;;14.53;;
27802;SDS011;15182;48.174;11.562;2023-01-28T03:03:17;26.40;;;15.00;;
27802;SDS011;15182;48.174;11.562;2023-01-28T03:05:59;22.60;;;14.20;;
27802;SDS011;15182;48.174;11.562;2023-01-28T03:08:38;24.97;;;15.23;;
27802;SDS011;15182;48.174;11.562;2023-01-28T03:11:35;25.60;;;15.20;;
27802;SDS011;15182;48.174;11.562;2023-01-28T03:14:28;26.27;;;14.00;;
27802;SDS011;15182;48.174;11.562;2023-01-28T03:17:21;24.83;;;14.53;;
27802;SDS011;15182;48.174;11.562;2023-01-28T03:20:18;23.17;;;14.60;;
27802;SDS011;15182;48.174;11.562;2023-01-28T03:23:16;25.70;;;15.57;;
27802;SDS011;15182;48.174;11.562;2023-01-28T03:26:16;26.07;;;15.20;;
27802;SDS011;15182;48.174;11.562;2023-01-28T03:29:13;26.30;;;15.17;;
27802;SDS011;15182;48.174;11.562;2023-01-28T03:32:06;25.20;;;15.43;;
27802;SDS011;15182;48.174;11.562;2023-01-28T03:34:58;23.10;;;15.27;;
27802;SDS011;15182;48.174;11.562;2023-01-28T03:37:48;24.27;;;14.53;;
27802;SDS011;15182;48.174;11.562;2023-01-28T03:40:21;22.73;;;14.80;;
27802;SDS011;15182;48.174;11.562;2023-01-28T03:42:53;26.97;;;14.37;;
27802;SDS011;15182;48.174;11.562;2023-01-28T03:45:32;25.30;;;13.23;;
27802;SDS011;15182;48.174;11.562;2023-01-28T03:48:04;25.27;;;14.73;;
27802;SDS011;15182;48.174;11.562;2023-01-28T03:50:37;24.20;;;13.83;;
27802;SDS011;15182;48.174;11.562;2023-01-28T03:53:09;22.07;;;14.47;;
27802;SDS011;15182;48.174;11.562;2023-01-28T03:55:45;25.40;;;14.10;;
27802;SDS011;15182;48.174;11.562;2023-01-28T03:58:20;30.30;;;15.40;;
27802;SDS011;15182;48.174;11.562;2023-01-28T04:01:05;22.27;;;14.07;;
27802;SDS011;15182;48.174;11.562;2023-01-28T04:03:37;25.43;;;14.60;;
27802;SDS011;15182;48.174;11.562;2023-01-28T04:06:14;21.10;;;13.17;;
27802;SDS011;15182;48.174;11.562;2023-01-28T04:09:25;22.37;;;13.83;;
27802;SDS011;15182;48.174;11.562;2023-01-28T04:12:18;24.97;;;14.90;;
27802;SDS011;15182;48.174;11.562;2023-01-28T04:14:51;23.23;;;15.10;;
27802;SDS011;15182;48.174;11.562;2023-01-28T04:17:28;22.17;;;14.43;;
27802;SDS011;15182;48.174;11.562;2023-01-28T04:20:00;20.73;;;13.83;;
27802;SDS011;15182;48.174;11.562;2023-01-28T04:22:33;23.83;;;15.07;;
27802;SDS011;15182;48.174;11.562;2023-01-28T04:25:08;20.70;;;14.07;;
27802;SDS011;15182;48.174;11.562;2023-01-28T04:27:39;27.07;;;13.90;;
27802;SDS011;15182;48.174;11.562;2023-01-28T04:30:16;22.00;;;13.37;;
27802;SDS011;15182;48.174;11.562;2023-01-28T04:33:03;21.03;;;13.23;;
27802;SDS011;15182;48.174;11.562;2023-01-28T04:35:51;20.83;;;14.00;;
27802;SDS011;15182;48.174;11.562;2023-01-28T04:38:35;21.80;;;13.27;;
27802;SDS011;15182;48.174;11.562;2023-01-28T04:41:20;25.10;;;14.93;;
27802;SDS011;15182;48.174;11.562;2023-01-28T04:43:51;22.40;;;13.47;;
27802;SDS011;15182;48.174;11.562;2023-01-28T04:46:45;19.73;;;13.83;;
27802;SDS011;15182;48.174;11.562;2023-01-28T04:49:36;18.03;;;13.03;;
27802;SDS011;15182;48.174;11.562;2023-01-28T04:52:13;21.03;;;14.27;;
27802;SDS011;15182;48.174;11.562;2023-01-28T04:54:56;22.67;;;14.33;;
27802;SDS011;15182;48.174;11.562;2023-01-28T04:57:30;24.33;;;14.33;;
27802;SDS011;15182;48.174;11.562;2023-01-28T05:00:04;23.33;;;13.83;;
27802;SDS011;15182;48.174;11.562;2023-01-28T05:02:38;20.73;;;13.27;;
27802;SDS011;15182;48.174;11.562;2023-01-28T05:05:10;18.20;;;12.63;;
27802;SDS011;15182;48.174;11.562;2023-01-28T05:07:56;20.23;;;13.53;;
27802;SDS011;15182;48.174;11.562;2023-01-28T05:10:29;21.03;;;14.03;;
27802;SDS011;15182;48.174;11.562;2023-01-28T05:13:00;22.93;;;14.93;;
27802;SDS011;15182;48.174;11.562;2023-01-28T05:15:34;23.50;;;14.43;;
27802;SDS011;15182;48.174;11.562;2023-01-28T05:18:05;18.77;;;13.43;;
27802;SDS011;15182;48.174;11.562;2023-01-28T05:20:42;18.97;;;13.17;;
27802;SDS011;15182;48.174;11.562;2023-01-28T05:23:14;21.43;;;14.40;;
27802;SDS011;15182;48.174;11.562;2023-01-28T05:25:51;19.40;;;13.40;;
27802;SDS011;15182;48.174;11.562;2023-01-28T05:28:23;18.23;;;12.40;;
27802;SDS011;15182;48.174;11.562;2023-01-28T05:30:56;21.53;;;14.77;;
27802;SDS011;15182;48.174;11.562;2023-01-28T05:33:33;22.13;;;13.53;;
27802;SDS011;15182;48.174;11.562;2023-01-28T05:36:07;21.30;;;14.00;;
27802;SDS011;15182;48.174;11.562;2023-01-28T05:38:41;20.83;;;13.83;;
27802;SDS011;15182;48.174;11.562;2023-01-28T05:41:14;21.33;;;13.73;;
27802;SDS011;15182;48.174;11.562;2023-01-28T05:43:52;19.97;;;13.03;;
27802;SDS011;15182;48.174;11.562;2023-01-28T05:46:36;22.20;;;13.50;;
27802;SDS011;15182;48.174;11.562;2023-01-28T05:49:30;19.93;;;13.70;;
27802;SDS011;15182;48.174;11.562;2023-01-28T05:52:26;22.43;;;15.17;;
27802;SDS011;15182;48.174;11.562;2023-01-28T05:54:58;19.07;;;13.20;;
27802;SDS011;15182;48.174;11.562;2023-01-28T05:57:31;16.87;;;12.40;;
27802;SDS011;15182;48.174;11.562;2023-01-28T06:00:04;22.00;;;12.53;;
27802;SDS011;15182;48.174;11.562;2023-01-28T06:02:40;21.03;;;14.00;;
27802;SDS011;15182;48.174;11.562;2023-01-28T06:05:16;21.70;;;14.30;;
27802;SDS011;15182;48.174;11.562;2023-01-28T06:07:48;19.37;;;13.43;;
27802;SDS011;15182;48.174;11.562;2023-01-28T06:10:22;22.90;;;14.33;;
27802;SDS011;15182;48.174;11.562;2023-01-28T06:12:55;20.73;;;13.97;;
27802;SDS011;15182;48.174;11.562;2023-01-28T06:15:38;20.40;;;13.73;;
27802;SDS011;15182;48.174;11.562;2023-01-28T06:18:24;19.67;;;13.20;;
27802;SDS011;15182;48.174;11.562;2023-01-28T06:20:58;21.33;;;13.23;;
27802;SDS011;15182;48.174;11.562;2023-01-28T06:23:29;20.70;;;14.10;;
27802;SDS011;15182;48.174;11.562;2023-01-28T06:26:02;19.93;;;13.13;;
27802;SDS011;15182;48.174;11.562;2023-01-28T06:28:37;20.20;;;13.13;;
27802;SDS011;15182;48.174;11.562;2023-01-28T06:31:08;19.00;;;14.10;;
27802;SDS011;15182;48.174;11.562;2023-01-28T06:33:40;20.67;;;14.00;;
27802;SDS011;15182;48.174;11.562;2023-01-28T06:36:11;20.13;;;13.93;;
27802;SDS011;15182;48.174;11.562;2023-01-28T06:38:43;22.87;;;14.37;;
27802;SDS011;15182;48.174;11.562;2023-01-28T06:41:14;20.03;;;12.80;;
27802;SDS011;15182;48.174;11.562;2023-01-28T06:43:46;21.77;;;14.03;;
27802;SDS011;15182;48.174;11.562;2023-01-28T06:46:20;20.97;;;14.80;;
27802;SDS011;15182;48.174;11.562;2023-01-28T06:48:51;20.60;;;13.93;;
27802;SDS011;15182;48.174;11.562;2023-01-28T06:51:24;20.30;;;13.00;;
27802;SDS011;15182;48.174;11.562;2023-01-28T06:53:55;22.27;;;14.70;;
27802;SDS011;15182;48.174;11.562;2023-01-28T06:56:29;31.30;;;17.40;;
27802;SDS011;15182;48.174;11.562;2023-01-28T06:59:02;24.17;;;14.83;;
27802;SDS011;15182;48.174;11.562;2023-01-28T07:01:33;22.17;;;14.60;;
27802;SDS011;15182;48.174;11.562;2023-01-28T07:04:05;21.27;;;13.13;;
27802;SDS011;15182;48.174;11.562;2023-01-28T07:06:36;19.87;;;14.17;;
27802;SDS011;15182;48.174;11.562;2023-01-28T07:09:07;22.07;;;14.20;;
27802;SDS011;15182;48.174;11.562;2023-01-28T07:11:39;24.30;;;12.87;;
27802;SDS011;15182;48.174;11.562;2023-01-28T07:14:11;21.23;;;12.70;;
27802;SDS011;15182;48.174;11.562;2023-01-28T07:16:43;18.40;;;13.23;;
27802;SDS011;15182;48.174;11.562;2023-01-28T07:19:15;18.20;;;13.23;;
27802;SDS011;15182;48.174;11.562;2023-01-28T07:21:46;21.10;;;13.53;;
27802;SDS011;15182;48.174;11.562;2023-01-28T07:24:17;21.00;;;13.53;;
27802;SDS011;15182;48.174;11.562;2023-01-28T07:26:48;25.17;;;13.63;;
27802;SDS011;15182;48.174;11.562;2023-01-28T07:29:21;20.23;;;13.17;;
27802;SDS011;15182;48.174;11.562;2023-01-28T07:31:53;19.63;;;13.50;;
27802;SDS011;15182;48.174;11.562;2023-01-28T07:34:24;22.30;;;13.97;;
27802;SDS011;15182;48.174;11.562;2023-01-28T07:36:56;16.30;;;12.80;;
27802;SDS011;15182;48.174;11.562;2023-01-28T07:39:28;19.60;;;13.30;;
27802;SDS011;15182;48.174;11.562;2023-01-28T07:41:59;19.27;;;12.60;;
27802;SDS011;15182;48.174;11.562;2023-01-28T07:44:37;20.67;;;13.30;;
27802;SDS011;15182;48.174;11.562;2023-01-28T07:47:08;21.67;;;13.27;;
27802;SDS011;15182;48.174;11.562;2023-01-28T07:49:42;20.93;;;13.60;;
27802;SDS011;15182;48.174;11.562;2023-01-28T07:52:13;19.63;;;12.67;;
27802;SDS011;15182;48.174;11.562;2023-01-28T07:54:44;19.80;;;12.37;;
27802;SDS011;15182;48.174;11.562;2023-01-28T07:57:15;21.63;;;13.20;;
27802;SDS011;15182;48.174;11.562;2023-01-28T07:59:50;22.30;;;13.73;;
27802;SDS011;15182;48.174;11.562;2023-01-28T08:02:21;17.13;;;12.10;;
27802;SDS011;15182;48.174;11.562;2023-01-28T08:04:54;18.70;;;12.87;;
27802;SDS011;15182;48.174;11.562;2023-01-28T08:07:26;21.50;;;13.20;;
27802;SDS011;15182;48.174;11.562;2023-01-28T08:09:58;21.00;;;12.07;;
27802;SDS011;15182;48.174;11.562;2023-01-28T08:12:29;18.57;;;12.43;;
27802;SDS011;15182;48.174;11.562;2023-01-28T08:15:02;19.60;;;13.17;;
27802;SDS011;15182;48.174;11.562;2023-01-28T08:17:33;18.17;;;12.17;;
27802;SDS011;15182;48.174;11.562;2023-01-28T08:20:05;17.07;;;11.77;;
27802;SDS011;15182;48.174;11.562;2023-01-28T08:22:35;18.33;;;12.37;;
27802;SDS011;15182;48.174;11.562;2023-01-28T08:25:07;16.47;;;12.83;;
27802;SDS011;15182;48.174;11.562;2023-01-28T08:27:40;18.37;;;12.47;;
27802;SDS011;15182;48.174;11.562;2023-01-28T08:30:13;17.10;;;12.10;;
27802;SDS011;15182;48.174;11.562;2023-01-28T08:32:46;19.07;;;12.30;;
27802;SDS011;15182;48.174;11.562;2023-01-28T08:35:17;16.60;;;12.77;;
27802;SDS011;15182;48.174;11.562;2023-01-28T08:37:51;22.13;;;13.33;;
27802;SDS011;15182;48.174;11.562;2023-01-28T08:40:24;19.57;;;12.40;;
27802;SDS011;15182;48.174;11.562;2023-01-28T08:42:56;20.97;;;12.70;;
27802;SDS011;15182;48.174;11.562;2023-01-28T08:45:30;16.73;;;12.30;;
27802;SDS011;15182;48.174;11.562;2023-01-28T08:48:02;15.83;;;12.43;;
27802;SDS011;15182;48.174;11.562;2023-01-28T08:50:37;17.23;;;11.97;;
27802;SDS011;15182;48.174;11.562;2023-01-28T08:53:10;17.90;;;12.00;;
27802;SDS011;15182;48.174;11.562;2023-01-28T08:55:45;15.53;;;12.50;;
27802;SDS011;15182;48.174;11.562;2023-01-28T08:58:17;20.40;;;13.07;;
27802;SDS011;15182;48.174;11.562;2023-01-28T09:00:50;18.00;;;13.07;;
27802;SDS011;15182;48.174;11.562;2023-01-28T09:03:21;18.70;;;12.93;;
27802;SDS011;15182;48.174;11.562;2023-01-28T09:05:58;14.50;;;11.90;;
27802;SDS011;15182;48.174;11.562;2023-01-28T09:08:30;18.87;;;12.70;;
27802;SDS011;15182;48.174;11.562;2023-01-28T09:11:01;18.63;;;12.37;;
27802;SDS011;15182;48.174;11.562;2023-01-28T09:13:34;18.53;;;12.60;;
27802;SDS011;15182;48.174;11.562;2023-01-28T09:16:07;17.03;;;12.33;;
27802;SDS011;15182;48.174;11.562;2023-01-28T09:18:39;17.67;;;12.67;;
27802;SDS011;15182;48.174;11.562;2023-01-28T09:21:10;18.07;;;12.13;;
27802;SDS011;15182;48.174;11.562;2023-01-28T09:23:42;17.20;;;12.27;;
27802;SDS011;15182;48.174;11.562;2023-01-28T09:26:14;19.65;;;12.70;;
27802;SDS011;15182;48.174;11.562;2023-01-28T09:28:46;16.20;;;11.87;;
27802;SDS011;15182;48.174;11.562;2023-01-28T09:31:19;15.93;;;11.27;;
27802;SDS011;15182;48.174;11.562;2023-01-28T09:33:52;15.97;;;12.60;;
27802;SDS011;15182;48.174;11.562;2023-01-28T09:36:23;19.23;;;12.80;;
27802;SDS011;15182;48.174;11.562;2023-01-28T09:38:57;16.50;;;12.57;;
27802;SDS011;15182;48.174;11.562;2023-01-28T09:41:29;19.40;;;13.47;;
27802;SDS011;15182;48.174;11.562;2023-01-28T09:44:24;14.50;;;11.50;;
27802;SDS011;15182;48.174;11.562;2023-01-28T09:47:07;16.00;;;12.20;;
27802;SDS011;15182;48.174;11.562;2023-01-28T09:49:46;16.73;;;12.20;;
27802;SDS011;15182;48.174;11.562;2023-01-28T09:52:22;17.53;;;11.93;;
27802;SDS011;15182;48.174;11.562;2023-01-28T09:54:57;19.63;;;12.70;;
27802;SDS011;15182;48.174;11.562;2023-01-28T09:57:36;15.17;;;11.87;;
27802;SDS011;15182;48.174;11.562;2023-01-28T10:00:12;19.00;;;12.80;;
27802;SDS011;15182;48.174;11.562;2023-01-28T10:02:57;17.70;;;12.40;;
27802;SDS011;15182;48.174;11.562;2023-01-28T10:05:50;16.13;;;12.90;;
27802;SDS011;15182;48.174;11.562;2023-01-28T10:08:37;18.43;;;12.47;;
27802;SDS011;15182;48.174;11.562;2023-01-28T10:11:36;16.63;;;11.93;;
27802;SDS011;15182;48.174;11.562;2023-01-28T10:14:25;16.67;;;12.03;;
27802;SDS011;15182;48.174;11.562;2023-01-28T10:17:06;18.67;;;12.43;;
27802;SDS011;15182;48.174;11.562;2023-01-28T10:19:48;18.90;;;13.20;;
27802;SDS011;15182;48.174;11.562;2023-01-28T10:22:22;16.30;;;11.87;;
27802;SDS011;15182;48.174;11.562;2023-01-28T10:25:01;19.50;;;12.87;;
27802;SDS011;15182;48.174;11.562;2023-01-28T10:27:41;15.33;;;12.30;;
27802;SDS011;15182;48.174;11.562;2023-01-28T10:30:17;15.57;;;12.27;;
27802;SDS011;15182;48.174;11.562;2023-01-28T10:32:53;15.37;;;11.97;;
27802;SDS011;15182;48.174;11.562;2023-01-28T10:35:32;20.47;;;13.30;;
27802;SDS011;15182;48.174;11.562;2023-01-28T10:38:06;18.90;;;13.37;;
27802;SDS011;15182;48.174;11.562;2023-01-28T10:40:43;17.43;;;12.83;;
27802;SDS011;15182;48.174;11.562;2023-01-28T10:43:15;17.00;;;11.60;;
27802;SDS011;15182;48.174;11.562;2023-01-28T10:45:52;15.27;;;11.40;;
27802;SDS011;15182;48.174;11.562;2023-01-28T10:48:28;16.93;;;12.20;;
27802;SDS011;15182;48.174;11.562;2023-01-28T10:51:04;16.17;;;12.10;;
27802;SDS011;15182;48.174;11.562;2023-01-28T10:53:35;19.63;;;13.60;;
27802;SDS011;15182;48.174;11.562;2023-01-28T10:56:08;18.23;;;12.63;;
27802;SDS011;15182;48.174;11.562;2023-01-28T10:58:52;15.87;;;12.07;;
27802;SDS011;15182;48.174;11.562;2023-01-28T11:01:39;20.30;;;12.87;;
27802;SDS011;15182;48.174;11.562;2023-01-28T11:04:16;16.70;;;11.77;;
27802;SDS011;15182;48.174;11.562;2023-01-28T11:06:54;16.43;;;12.10;;
27802;SDS011;15182;48.174;11.562;2023-01-28T11:09:25;18.43;;;12.20;;
27802;SDS011;15182;48.174;11.562;2023-01-28T11:12:09;16.43;;;12.37;;
27802;SDS011;15182;48.174;11.562;2023-01-28T11:14:50;17.90;;;12.53;;
27802;SDS011;15182;48.174;11.562;2023-01-28T11:17:24;16.60;;;11.90;;
27802;SDS011;15182;48.174;11.562;2023-01-28T11:20:00;16.63;;;12.67;;
27802;SDS011;15182;48.174;11.562;2023-01-28T11:22:40;17.67;;;12.07;;
27802;SDS011;15182;48.174;11.562;2023-01-28T11:25:15;15.30;;;11.90;;
27802;SDS011;15182;48.174;11.562;2023-01-28T11:27:52;15.57;;;11.90;;
27802;SDS011;15182;48.174;11.562;2023-01-28T11:30:25;16.90;;;11.43;;
27802;SDS011;15182;48.174;11.562;2023-01-28T11:33:02;14.50;;;11.40;;
27802;SDS011;15182;48.174;11.562;2023-01-28T11:35:51;16.20;;;12.27;;
27802;SDS011;15182;48.174;11.562;2023-01-28T11:38:25;17.47;;;12.37;;
27802;SDS011;15182;48.174;11.562;2023-01-28T11:40:57;15.27;;;11.90;;
27802;SDS011;15182;48.174;11.562;2023-01-28T11:43:29;15.40;;;11.50;;
27802;SDS011;15182;48.174;11.562;2023-01-28T11:46:05;14.80;;;11.47;;
27802;SDS011;15182;48.174;11.562;2023-01-28T11:48:49;14.80;;;11.13;;
27802;SDS011;15182;48.174;11.562;2023-01-28T11:51:34;14.70;;;10.77;;
27802;SDS011;15182;48.174;11.562;2023-01-28T11:54:14;12.97;;;10.73;;
27802;SDS011;15182;48.174;11.562;2023-01-28T11:56:59;15.00;;;10.60;;
27802;SDS011;15182;48.174;11.562;2023-01-28T11:59:49;10.97;;;9.73;;
27802;SDS011;15182;48.174;11.562;2023-01-28T12:02:36;13.23;;;10.30;;
27802;SDS011;15182;48.174;11.562;2023-01-28T12:05:18;14.90;;;10.27;;
27802;SDS011;15182;48.174;11.562;2023-01-28T12:08:08;13.73;;;11.03;;
27802;SDS011;15182;48.174;11.562;2023-01-28T12:10:49;16.83;;;10.70;;
27802;SDS011;15182;48.174;11.562;2023-01-28T12:13:42;12.47;;;10.13;;
27802;SDS011;15182;48.174;11.562;2023-01-28T12:16:37;16.87;;;10.23;;
27802;SDS011;15182;48.174;11.562;2023-01-28T12:19:34;17.73;;;11.60;;
27802;SDS011;15182;48.174;11.562;2023-01-28T12:22:23;19.40;;;12.50;;
27802;SDS011;15182;48.174;11.562;2023-01-28T12:25:26;16.60;;;11.77;;
27802;SDS011;15182;48.174;11.562;2023-01-28T12:28:23;13.60;;;10.93;;
27802;SDS011;15182;48.174;11.562;2023-01-28T12:31:08;17.53;;;12.03;;
27802;SDS011;15182;48.174;11.562;2023-01-28T12:34:00;17.47;;;11.63;;
27802;SDS011;15182;48.174;11.562;2023-01-28T12:36:55;16.10;;;12.17;;
27802;SDS011;15182;48.174;11.562;2023-01-28T12:39:35;18.27;;;12.17;;
27802;SDS011;15182;48.174;11.562;2023-01-28T12:42:13;20.23;;;13.00;;
27802;SDS011;15182;48.174;11.562;2023-01-28T12:44:51;14.70;;;11.57;;
27802;SDS011;15182;48.174;11.562;2023-01-28T12:47:32;15.83;;;11.70;;
27802;SDS011;15182;48.174;11.562;2023-01-28T12:50:10;17.43;;;11.63;;
27802;SDS011;15182;48.174;11.562;2023-01-28T12:52:49;17.03;;;11.83;;
27802;SDS011;15182;48.174;11.562;2023-01-28T12:55:33;18.97;;;12.57;;
27802;SDS011;15182;48.174;11.562;2023-01-28T12:58:11;25.90;;;13.07;;
27802;SDS011;15182;48.174;11.562;2023-01-28T13:00:50;18.10;;;12.57;;
27802;SDS011;15182;48.174;11.562;2023-01-28T13:03:29;17.40;;;12.17;;
27802;SDS011;15182;48.174;11.562;2023-01-28T13:06:11;16.00;;;11.97;;
27802;SDS011;15182;48.174;11.562;2023-01-28T13:08:51;15.03;;;12.03;;
27802;SDS011;15182;48.174;11.562;2023-01-28T13:11:29;16.97;;;11.60;;
27802;SDS011;15182;48.174;11.562;2023-01-28T13:14:03;16.63;;;11.33;;
27802;SDS011;15182;48.174;11.562;2023-01-28T13:16:37;18.73;;;12.20;;
27802;SDS011;15182;48.174;11.562;2023-01-28T13:19:19;14.77;;;11.13;;
27802;SDS011;15182;48.174;11.562;2023-01-28T13:21:51;14.73;;;11.63;;
27802;SDS011;15182;48.174;11.562;2023-01-28T13:24:29;13.77;;;11.00;;
27802;SDS011;15182;48.174;11.562;2023-01-28T13:27:09;15.00;;;10.53;;
27802;SDS011;15182;48.174;11.562;2023-01-28T13:29:59;16.67;;;11.57;;
27802;SDS011;15182;48.174;11.562;2023-01-28T13:32:53;17.13;;;12.20;;
27802;SDS011;15182;48.174;11.562;2023-01-28T13:35:30;18.53;;;10.87;;
27802;SDS011;15182;48.174;11.562;2023-01-28T13:38:08;15.30;;;11.40;;
27802;SDS011;15182;48.174;11.562;2023-01-28T13:40:52;16.27;;;12.10;;
27802;SDS011;15182;48.174;11.562;2023-01-28T13:43:27;15.70;;;11.37;;
27802;SDS011;15182;48.174;11.562;2023-01-28T13:46:06;13.67;;;11.87;;
27802;SDS011;15182;48.174;11.562;2023-01-28T13:48:43;14.17;;;11.33;;
27802;SDS011;15182;48.174;11.562;2023-01-28T13:51:19;16.40;;;11.33;;
27802;SDS011;15182;48.174;11.562;2023-01-28T13:53:57;21.57;;;11.90;;
27802;SDS011;15182;48.174;11.562;2023-01-28T13:56:34;15.17;;;10.87;;
27802;SDS011;15182;48.174;11.562;2023-01-28T13:59:29;14.53;;;10.77;;
27802;SDS011;15182;48.174;11.562;2023-01-28T14:02:19;15.50;;;11.17;;
27802;SDS011;15182;48.174;11.562;2023-01-28T14:05:33;15.57;;;11.30;;
27802;SDS011;15182;48.174;11.562;2023-01-28T14:11:50;15.47;;;11.50;;
27802;SDS011;15182;48.174;11.562;2023-01-28T14:14:48;18.33;;;12.57;;
27802;SDS011;15182;48.174;11.562;2023-01-28T14:17:39;17.20;;;12.00;;
27802;SDS011;15182;48.174;11.562;2023-01-28T14:20:16;19.13;;;12.60;;
27802;SDS011;15182;48.174;11.562;2023-01-28T14:22:55;16.40;;;11.60;;
27802;SDS011;15182;48.174;11.562;2023-01-28T14:25:33;16.77;;;12.57;;
27802;SDS011;15182;48.174;11.562;2023-01-28T14:28:09;23.57;;;12.80;;
27802;SDS011;15182;48.174;11.562;2023-01-28T14:30:52;16.83;;;12.97;;
27802;SDS011;15182;48.174;11.562;2023-01-28T14:33:30;18.30;;;11.67;;
27802;SDS011;15182;48.174;11.562;2023-01-28T14:36:03;15.57;;;11.63;;
27802;SDS011;15182;48.174;11.562;2023-01-28T14:38:39;18.43;;;11.97;;
27802;SDS011;15182;48.174;11.562;2023-01-28T14:41:17;16.33;;;11.30;;
27802;SDS011;15182;48.174;11.562;2023-01-28T14:43:53;16.67;;;11.53;;
27802;SDS011;15182;48.174;11.562;2023-01-28T14:46:29;17.27;;;11.37;;
27802;SDS011;15182;48.174;11.562;2023-01-28T14:49:18;18.23;;;12.10;;
27802;SDS011;15182;48.174;11.562;2023-01-28T14:52:01;14.00;;;10.53;;
27802;SDS011;15182;48.174;11.562;2023-01-28T14:54:47;12.50;;;10.17;;
27802;SDS011;15182;48.174;11.562;2023-01-28T14:57:29;17.23;;;10.73;;
27802;SDS011;15182;48.174;11.562;2023-01-28T15:00:16;15.63;;;10.33;;
27802;SDS011;15182;48.174;11.562;2023-01-28T15:02:50;17.07;;;11.63;;
27802;SDS011;15182;48.174;11.562;2023-01-28T15:05:24;13.67;;;10.60;;
27802;SDS011;15182;48.174;11.562;2023-01-28T15:07:56;19.53;;;11.87;;
27802;SDS011;15182;48.174;11.562;2023-01-28T15:10:30;14.00;;;10.60;;
27802;SDS011;15182;48.174;11.562;2023-01-28T15:13:04;13.70;;;10.37;;
27802;SDS011;15182;48.174;11.562;2023-01-28T15:15:40;11.10;;;9.67;;